Time;durP1;ratioP1;P1;durP2;ratioP2;P2;SDS_P1;SDS_P2;PMS_P1;PMS_P2;Temp;Humidity;BMP_temperature;BMP_pressure;BME280_temperature;BME280_humidity;BME280_pressure;Samples;Min_cycle;Max_cycle;Signal;HPM_P1;HPM_P2
2021/03/23 00:01:54;;;;;;;34.83;22.35;;;;;;;3.90;54.24;100718.70;121721;1155;22688;-73
2021/03/23 00:04:22;;;;;;;31.85;19.50;;;;;;;3.87;54.16;100718.11;121648;1157;22495;-73
2021/03/23 00:06:51;;;;;;;34.70;22.23;;;;;;;3.82;54.64;100715.82;121735;1158;22699;-73
2021/03/23 00:09:19;;;;;;;33.03;20.83;;;;;;;3.78;54.33;100714.39;122083;1155;22563;-73
2021/03/23 00:11:47;;;;;;;32.75;21.23;;;;;;;3.73;54.26;100722.59;121744;1155;23032;-73
2021/03/23 00:14:17;;;;;;;37.70;22.18;;;;;;;3.69;54.40;100718.52;121858;1158;22799;-74
2021/03/23 00:16:49;;;;;;;37.80;22.23;;;;;;;3.63;54.43;100718.14;121912;1158;22655;-73
2021/03/23 00:19:18;;;;;;;30.63;20.40;;;;;;;3.59;54.70;100714.92;122067;1155;22696;-73
2021/03/23 00:21:46;;;;;;;31.93;19.00;;;;;;;3.57;54.78;100724.67;121740;1152;22558;-72
2021/03/23 00:24:14;;;;;;;30.25;18.38;;;;;;;3.54;54.96;100717.06;122122;1153;22934;-73
2021/03/23 00:26:42;;;;;;;30.80;19.03;;;;;;;3.54;55.19;100719.67;122166;1151;23799;-74
2021/03/23 00:29:12;;;;;;;30.07;19.80;;;;;;;3.53;54.98;100721.45;122226;1152;22547;-74
2021/03/23 00:31:40;;;;;;;26.45;18.68;;;;;;;3.53;55.21;100717.98;122154;1153;22536;-74
2021/03/23 00:34:10;;;;;;;37.93;20.70;;;;;;;3.53;55.27;100712.76;122089;1152;24692;-73
2021/03/23 00:36:42;;;;;;;33.37;21.83;;;;;;;3.51;55.38;100718.11;122150;1153;22548;-73
2021/03/23 00:39:11;;;;;;;29.63;19.68;;;;;;;3.50;55.38;100710.41;122206;1155;23329;-74
2021/03/23 00:41:43;;;;;;;34.65;21.13;;;;;;;3.49;55.44;100712.16;121747;1155;22567;-75
2021/03/23 00:44:14;;;;;;;31.20;20.57;;;;;;;3.47;55.54;100718.47;122070;1155;23493;-72
2021/03/23 00:46:43;;;;;;;29.75;19.48;;;;;;;3.46;55.55;100714.16;121651;1155;24622;-72
2021/03/23 00:49:12;;;;;;;30.35;19.30;;;;;;;3.45;55.44;100712.50;121972;1155;22571;-73
2021/03/23 00:51:41;;;;;;;32.15;19.48;;;;;;;3.42;55.37;100710.95;121731;1155;22575;-72
2021/03/23 00:54:11;;;;;;;29.90;18.18;;;;;;;3.38;55.33;100714.73;121603;1155;22572;-72
2021/03/23 00:56:39;;;;;;;28.95;18.33;;;;;;;3.36;55.67;100716.61;121708;1155;23039;-72
2021/03/23 00:59:07;;;;;;;30.70;19.73;;;;;;;3.33;55.66;100711.61;121773;1152;22582;-73
2021/03/23 01:01:35;;;;;;;32.88;17.95;;;;;;;3.31;56.00;100716.13;122357;1152;22783;-73
2021/03/23 01:04:21;;;;;;;37.38;20.70;;;;;;;3.29;55.94;100713.62;122200;1154;22567;-73
2021/03/23 01:06:50;;;;;;;32.55;19.53;;;;;;;3.25;55.89;100709.57;122409;1152;22605;-73
2021/03/23 01:09:19;;;;;;;33.53;20.03;;;;;;;3.24;56.20;100713.14;122107;1151;22571;-73
2021/03/23 01:11:47;;;;;;;34.90;20.50;;;;;;;3.24;55.92;100714.92;122208;1152;22994;-73
2021/03/23 01:14:16;;;;;;;39.70;21.80;;;;;;;3.22;56.11;100717.63;122105;1152;22557;-73
2021/03/23 01:16:44;;;;;;;39.55;21.55;;;;;;;3.22;56.29;100719.41;122098;1152;22559;-72
2021/03/23 01:19:14;;;;;;;44.70;22.40;;;;;;;3.21;56.12;100720.36;122172;1152;22547;-73
2021/03/23 01:21:42;;;;;;;37.98;23.73;;;;;;;3.19;56.32;100717.02;122402;1155;22623;-72
2021/03/23 01:24:11;;;;;;;38.63;22.25;;;;;;;3.19;56.34;100717.02;122173;1155;22448;-72
2021/03/23 01:26:39;;;;;;;45.88;24.70;;;;;;;3.18;56.37;100710.97;122092;1152;22560;-73
2021/03/23 01:29:07;;;;;;;43.63;23.15;;;;;;;3.18;56.17;100723.19;122149;1153;22553;-74
2021/03/23 01:31:35;;;;;;;44.23;25.23;;;;;;;3.15;56.24;100718.19;122318;1152;24742;-75
2021/03/23 01:34:05;;;;;;;41.38;23.93;;;;;;;3.12;56.18;100723.63;122345;1152;22560;-74
2021/03/23 01:36:33;;;;;;;41.55;25.20;;;;;;;3.09;56.36;100718.63;122137;1151;24786;-73
2021/03/23 01:39:03;;;;;;;43.88;25.63;;;;;;;3.07;56.46;100726.58;122240;1152;24431;-73
2021/03/23 01:41:32;;;;;;;43.63;25.53;;;;;;;3.05;56.51;100718.02;122119;1152;22648;-75
2021/03/23 01:44:00;;;;;;;40.85;23.50;;;;;;;3.03;56.41;100714.67;122118;1152;22546;-73
2021/03/23 01:46:45;;;;;;;46.65;27.25;;;;;;;3.02;56.69;100718.23;122421;1152;23573;-74
2021/03/23 01:49:40;;;;;;;44.73;25.70;;;;;;;2.99;56.62;100714.06;122270;1152;22563;-75
2021/03/23 01:52:18;;;;;;;45.15;26.10;;;;;;;2.96;56.86;100716.89;122180;1152;24744;-73
2021/03/23 01:55:00;;;;;;;44.95;28.25;;;;;;;2.95;56.74;100709.19;122059;1155;24693;-73
2021/03/23 01:57:31;;;;;;;41.78;26.68;;;;;;;2.93;56.78;100713.67;122130;1152;22619;-73
2021/03/23 02:00:00;;;;;;;47.55;27.00;;;;;;;2.91;57.01;100713.80;122208;1151;22455;-73
2021/03/23 02:02:30;;;;;;;47.18;29.15;;;;;;;2.90;57.02;100706.91;122067;1154;23244;-73
2021/03/23 02:05:21;;;;;;;41.85;27.35;;;;;;;2.87;56.93;100712.35;122187;1155;24455;-73
2021/03/23 02:07:50;;;;;;;46.35;26.55;;;;;;;2.82;56.91;100710.05;122069;1152;22556;-73
2021/03/23 02:10:20;;;;;;;46.55;28.15;;;;;;;2.80;57.15;100704.13;122091;1154;22560;-74
2021/03/23 02:12:50;;;;;;;41.48;27.38;;;;;;;2.77;57.18;100704.34;122090;1155;22551;-72
2021/03/23 02:15:23;;;;;;;45.18;29.23;;;;;;;2.76;57.29;100699.22;121639;1155;24237;-72
2021/03/23 02:18:14;;;;;;;47.35;28.18;;;;;;;2.72;57.29;100703.81;121940;1157;22888;-73
2021/03/23 02:21:08;;;;;;;51.90;29.90;;;;;;;2.69;57.38;100700.59;121653;1155;22661;-74
2021/03/23 02:23:50;;;;;;;44.80;28.83;;;;;;;2.61;57.03;100697.71;121611;1155;22624;-73
2021/03/23 02:26:27;;;;;;;45.70;28.15;;;;;;;2.55;57.65;100705.01;121668;1155;23361;-72
2021/03/23 02:29:16;;;;;;;51.23;30.27;;;;;;;2.51;57.69;100702.73;121895;1158;24139;-72
2021/03/23 02:31:49;;;;;;;54.03;31.40;;;;;;;2.48;57.85;100706.38;121566;1155;24722;-71
2021/03/23 02:34:21;;;;;;;50.35;31.20;;;;;;;2.45;58.00;100724.02;121958;1153;22877;-71
2021/03/23 02:36:51;;;;;;;47.33;31.55;;;;;;;2.41;58.04;100717.36;122160;1152;22550;-72
2021/03/23 02:39:25;;;;;;;49.33;31.78;;;;;;;2.39;58.12;100720.05;122147;1153;24728;-72
2021/03/23 02:41:55;;;;;;;54.38;31.85;;;;;;;2.36;58.50;100721.09;122076;1153;22652;-72
2021/03/23 02:44:26;;;;;;;50.88;30.58;;;;;;;2.33;58.66;100721.33;122097;1155;22549;-72
2021/03/23 02:46:54;;;;;;;50.18;28.15;;;;;;;2.33;58.87;100721.33;122061;1153;22726;-72
2021/03/23 02:49:23;;;;;;;50.03;30.35;;;;;;;2.35;59.00;100726.42;122105;1154;22553;-72
2021/03/23 02:51:51;;;;;;;46.57;26.97;;;;;;;2.36;59.00;100712.44;122343;1151;22560;-72
2021/03/23 02:54:19;;;;;;;44.55;26.13;;;;;;;2.35;59.14;100714.22;122169;1151;22557;-72
2021/03/23 02:56:47;;;;;;;36.35;24.25;;;;;;;2.36;59.29;100720.27;122114;1152;25242;-72
2021/03/23 02:59:16;;;;;;;40.23;24.45;;;;;;;2.35;59.37;100724.64;122218;1152;23009;-72
2021/03/23 03:01:44;;;;;;;35.98;24.08;;;;;;;2.38;59.48;100723.61;122112;1152;24699;-72
2021/03/23 03:04:13;;;;;;;40.73;23.98;;;;;;;2.39;59.54;100714.84;122129;1152;23339;-72
2021/03/23 03:06:41;;;;;;;37.05;24.53;;;;;;;2.40;59.47;100711.31;122190;1152;22646;-72
2021/03/23 03:09:10;;;;;;;35.07;23.30;;;;;;;2.41;59.54;100709.53;122340;1152;22720;-72
2021/03/23 03:11:38;;;;;;;37.13;22.43;;;;;;;2.39;59.55;100709.63;121977;1154;22574;-72
2021/03/23 03:14:06;;;;;;;34.48;23.53;;;;;;;2.42;59.80;100708.58;121653;1155;22562;-72
2021/03/23 03:16:35;;;;;;;37.35;24.35;;;;;;;2.45;59.90;100714.42;121666;1155;22776;-73
2021/03/23 03:19:03;;;;;;;36.90;24.63;;;;;;;2.48;59.84;100719.42;121983;1155;22860;-73
2021/03/23 03:21:31;;;;;;;34.70;23.85;;;;;;;2.53;59.88;100716.48;121625;1155;24706;-72
2021/03/23 03:24:00;;;;;;;33.83;23.85;;;;;;;2.56;59.93;100719.70;121966;1157;22562;-71
2021/03/23 03:26:28;;;;;;;41.10;23.48;;;;;;;2.60;59.93;100717.75;121653;1155;25160;-72
2021/03/23 03:28:57;;;;;;;36.43;21.60;;;;;;;2.62;59.98;100710.63;122027;1155;22562;-74
2021/03/23 03:31:29;;;;;;;38.30;21.53;;;;;;;2.65;60.27;100715.63;122089;1154;24783;-75
2021/03/23 03:34:00;;;;;;;37.13;22.48;;;;;;;2.71;59.99;100712.59;122210;1152;22554;-74
2021/03/23 03:36:31;;;;;;;33.65;21.15;;;;;;;2.76;60.04;100707.05;122176;1152;22571;-76
2021/03/23 03:39:00;;;;;;;34.93;22.28;;;;;;;2.81;59.93;100704.95;121687;1155;22616;-71
2021/03/23 03:41:29;;;;;;;28.48;20.00;;;;;;;2.85;59.99;100709.01;121651;1155;24714;-71
2021/03/23 03:43:58;;;;;;;28.25;17.48;;;;;;;2.87;59.79;100701.09;122011;1155;22576;-72
2021/03/23 03:46:26;;;;;;;31.63;17.98;;;;;;;2.92;59.95;100701.57;121650;1155;23355;-73
2021/03/23 03:48:55;;;;;;;35.25;18.75;;;;;;;2.91;60.02;100708.57;121660;1155;22750;-71
2021/03/23 03:51:23;;;;;;;30.88;19.85;;;;;;;2.93;59.90;100693.65;121646;1155;22566;-72
2021/03/23 03:53:52;;;;;;;31.70;17.15;;;;;;;2.97;59.96;100702.09;121640;1155;22818;-73
2021/03/23 03:56:20;;;;;;;29.95;18.23;;;;;;;2.99;60.11;100710.63;121656;1152;22576;-73
2021/03/23 03:58:48;;;;;;;29.18;18.30;;;;;;;2.99;59.93;100714.06;122060;1152;22556;-74
2021/03/23 04:01:17;;;;;;;31.18;19.03;;;;;;;3.02;60.04;100716.45;122091;1152;22553;-72
2021/03/23 04:03:46;;;;;;;26.48;16.48;;;;;;;3.03;60.11;100725.97;122295;1152;22594;-72
2021/03/23 04:06:14;;;;;;;28.38;16.55;;;;;;;3.06;60.06;100727.50;122096;1152;22600;-72
2021/03/23 04:08:43;;;;;;;26.38;15.55;;;;;;;3.08;60.17;100728.24;122184;1152;22552;-72
2021/03/23 04:11:12;;;;;;;22.63;14.30;;;;;;;3.10;60.14;100730.73;122348;1152;22556;-72
2021/03/23 04:13:40;;;;;;;31.28;15.28;;;;;;;3.12;60.32;100732.29;122177;1152;24484;-72
2021/03/23 04:16:10;;;;;;;21.55;14.23;;;;;;;3.12;60.20;100732.29;122159;1152;22809;-72
2021/03/23 04:18:38;;;;;;;24.33;14.93;;;;;;;3.15;60.43;100729.46;122161;1152;22546;-72
2021/03/23 04:21:07;;;;;;;23.70;14.00;;;;;;;3.17;60.36;100730.20;122329;1154;22608;-71
2021/03/23 04:23:51;;;;;;;21.15;13.73;;;;;;;3.18;60.33;100724.02;122221;1152;22559;-72
2021/03/23 04:26:19;;;;;;;25.00;14.50;;;;;;;3.21;60.29;100723.80;122183;1151;22555;-72
2021/03/23 04:28:47;;;;;;;27.15;15.78;;;;;;;3.20;60.38;100724.75;122097;1151;22547;-72
2021/03/23 04:31:38;;;;;;;35.53;18.78;;;;;;;3.20;60.37;100729.98;122138;1152;24696;-71
2021/03/23 04:34:07;;;;;;;29.10;16.60;;;;;;;3.21;60.47;100728.20;122213;1152;22556;-73
2021/03/23 04:36:35;;;;;;;29.63;16.43;;;;;;;3.26;60.70;100736.51;122089;1152;22553;-72
2021/03/23 04:39:07;;;;;;;29.78;16.88;;;;;;;3.28;60.59;100740.69;122095;1152;24778;-71
2021/03/23 04:41:38;;;;;;;26.93;15.15;;;;;;;3.28;60.46;100737.24;122227;1152;22547;-72
2021/03/23 04:44:08;;;;;;;27.00;15.68;;;;;;;3.28;60.61;100739.86;122230;1152;22576;-71
2021/03/23 04:46:36;;;;;;;22.30;15.28;;;;;;;3.25;60.61;100740.91;122305;1152;22721;-72
2021/03/23 04:49:05;;;;;;;28.25;16.90;;;;;;;3.23;60.70;100737.59;122230;1151;22552;-73
2021/03/23 04:51:33;;;;;;;21.30;13.90;;;;;;;3.21;60.68;100742.08;122162;1152;22558;-73
2021/03/23 04:54:08;;;;;;;24.53;15.43;;;;;;;3.18;60.76;100742.30;122177;1152;22558;-72
2021/03/23 04:56:40;;;;;;;25.30;14.10;;;;;;;3.14;60.95;100740.03;122175;1152;23093;-72
2021/03/23 04:59:09;;;;;;;23.85;16.10;;;;;;;3.12;61.16;100745.34;122119;1152;22551;-73
2021/03/23 05:01:39;;;;;;;24.45;15.10;;;;;;;3.15;61.58;100747.73;122053;1152;24409;-72
2021/03/23 05:04:15;;;;;;;26.58;15.25;;;;;;;3.16;61.31;100751.17;122056;1152;22545;-72
2021/03/23 05:06:43;;;;;;;26.38;14.90;;;;;;;3.14;61.46;100750.47;122192;1155;22543;-72
2021/03/23 05:09:12;;;;;;;25.40;14.73;;;;;;;3.12;61.73;100744.52;122194;1152;22551;-74
2021/03/23 05:11:40;;;;;;;25.70;13.50;;;;;;;3.09;61.82;100749.95;122091;1152;23195;-74
2021/03/23 05:14:10;;;;;;;19.58;13.13;;;;;;;3.06;61.75;100751.00;122095;1150;22565;-73
2021/03/23 05:16:38;;;;;;;25.93;14.63;;;;;;;3.04;62.22;100753.73;122084;1152;22550;-73
2021/03/23 05:19:06;;;;;;;23.48;13.85;;;;;;;3.06;62.25;100748.39;122048;1152;22643;-73
2021/03/23 05:21:35;;;;;;;25.40;14.73;;;;;;;3.07;62.38;100750.08;122310;1152;24858;-72
2021/03/23 05:24:05;;;;;;;21.60;14.03;;;;;;;3.08;62.54;100759.56;121979;1155;22544;-72
2021/03/23 05:26:34;;;;;;;23.20;13.60;;;;;;;3.11;62.44;100761.13;121984;1155;22639;-72
2021/03/23 05:29:03;;;;;;;22.23;12.98;;;;;;;3.11;62.67;100758.52;121975;1155;22555;-73
2021/03/23 05:31:33;;;;;;;25.65;13.20;;;;;;;3.11;62.94;100759.34;122028;1155;22591;-72
2021/03/23 05:34:05;;;;;;;27.33;15.23;;;;;;;3.13;63.12;100761.84;121987;1154;22545;-72
2021/03/23 05:36:33;;;;;;;24.00;14.35;;;;;;;3.16;62.85;100761.62;121943;1155;22540;-72
2021/03/23 05:39:02;;;;;;;21.65;13.25;;;;;;;3.20;63.01;100765.67;121954;1154;22583;-72
2021/03/23 05:41:48;;;;;;;22.08;13.83;;;;;;;3.24;63.09;100761.92;121975;1152;22548;-72
2021/03/23 05:44:44;;;;;;;23.30;13.10;;;;;;;3.29;63.07;100763.23;122320;1152;22564;-71
2021/03/23 05:47:20;;;;;;;25.78;14.85;;;;;;;3.30;63.53;100759.70;122178;1152;22562;-72
2021/03/23 05:50:25;;;;;;;21.85;13.60;;;;;;;3.37;63.09;100767.09;122225;1152;22556;-71
2021/03/23 05:53:07;;;;;;;24.95;14.43;;;;;;;3.39;63.14;100763.40;122087;1153;22640;-71
2021/03/23 05:55:47;;;;;;;29.25;14.43;;;;;;;3.44;62.99;100760.47;122074;1152;22540;-71
2021/03/23 05:58:22;;;;;;;25.05;13.98;;;;;;;3.46;62.99;100759.39;122070;1153;22543;-71
2021/03/23 06:01:02;;;;;;;24.25;13.50;;;;;;;3.49;63.07;100755.73;122108;1152;22540;-70
2021/03/23 06:03:43;;;;;;;24.30;15.00;;;;;;;3.51;62.98;100761.69;122197;1153;22647;-71
2021/03/23 06:06:42;;;;;;;27.58;15.98;;;;;;;3.56;63.17;100758.73;122107;1152;22547;-71
2021/03/23 06:09:17;;;;;;;25.20;15.10;;;;;;;3.59;63.01;100761.12;122176;1152;22550;-70
2021/03/23 06:11:56;;;;;;;21.50;14.50;;;;;;;3.60;62.98;100768.86;122089;1152;22550;-71
2021/03/23 06:14:57;;;;;;;25.33;14.25;;;;;;;3.66;63.11;100764.94;122240;1152;22610;-71
2021/03/23 06:18:02;;;;;;;24.35;13.83;;;;;;;3.64;62.87;100772.08;122181;1152;25311;-71
2021/03/23 06:20:57;;;;;;;22.63;13.75;;;;;;;3.59;63.07;100771.56;122321;1152;22664;-71
2021/03/23 06:24:08;;;;;;;21.63;14.18;;;;;;;3.57;63.23;100774.30;122107;1152;22554;-72
2021/03/23 06:27:00;;;;;;;25.55;14.13;;;;;;;3.57;63.32;100776.09;121658;1155;25365;-72
2021/03/23 06:30:06;;;;;;;27.73;15.53;;;;;;;3.60;63.68;100781.92;121593;1155;22570;-72
2021/03/23 06:32:55;;;;;;;25.60;15.15;;;;;;;3.66;63.79;100775.39;121580;1155;23688;-71
2021/03/23 06:35:31;;;;;;;23.23;14.33;;;;;;;3.68;63.70;100776.95;121704;1155;22624;-72
2021/03/23 06:38:09;;;;;;;27.13;16.53;;;;;;;3.77;64.01;100776.28;121684;1155;24680;-71
2021/03/23 06:40:38;;;;;;;28.20;20.13;;;;;;;3.87;64.23;100781.66;121596;1155;22551;-71
2021/03/23 06:43:29;;;;;;;26.33;15.80;;;;;;;3.95;64.35;100787.14;121557;1157;22602;-71
2021/03/23 06:46:39;;;;;;;24.30;16.38;;;;;;;4.01;64.37;100785.86;121543;1158;22603;-71
2021/03/23 06:49:13;;;;;;;24.80;13.55;;;;;;;4.05;64.07;100792.52;121441;1158;22573;-71
2021/03/23 06:52:21;;;;;;;23.78;14.30;;;;;;;4.07;64.40;100792.42;121142;1158;24815;-71
2021/03/23 06:55:24;;;;;;;26.97;14.77;;;;;;;4.06;64.33;100788.94;120847;1163;24812;-71
2021/03/23 06:57:52;;;;;;;25.35;15.10;;;;;;;4.03;64.30;100794.40;120955;1161;22667;-71
2021/03/23 07:00:33;;;;;;;23.10;14.20;;;;;;;4.04;64.44;100797.88;120977;1161;22680;-71
2021/03/23 07:03:23;;;;;;;24.95;15.75;;;;;;;4.11;64.62;100797.29;120862;1160;22566;-71
2021/03/23 07:05:53;;;;;;;25.20;16.58;;;;;;;4.15;64.80;100801.33;121065;1159;22581;-71
2021/03/23 07:08:26;;;;;;;25.60;14.03;;;;;;;4.18;64.86;100797.66;121084;1161;22564;-71
2021/03/23 07:10:55;;;;;;;24.75;16.03;;;;;;;4.23;64.80;100808.59;121094;1161;22614;-72
2021/03/23 07:13:26;;;;;;;27.63;17.65;;;;;;;4.27;65.05;100793.53;121058;1161;24708;-72
2021/03/23 07:16:12;;;;;;;26.20;14.95;;;;;;;4.30;65.01;100798.50;121074;1161;22573;-71
2021/03/23 07:18:46;;;;;;;21.80;14.83;;;;;;;4.31;65.36;100803.63;121092;1160;22640;-71
2021/03/23 07:21:34;;;;;;;25.15;15.08;;;;;;;4.39;65.32;100800.42;121050;1159;22580;-71
2021/03/23 07:24:18;;;;;;;21.80;12.83;;;;;;;4.48;65.54;100810.20;121076;1159;22574;-71
2021/03/23 07:27:09;;;;;;;21.93;13.63;;;;;;;4.54;65.42;100809.73;121413;1158;22551;-71
2021/03/23 07:29:39;;;;;;;21.40;13.28;;;;;;;4.63;66.07;100822.11;121522;1158;22614;-73
2021/03/23 07:32:15;;;;;;;21.30;14.17;;;;;;;4.73;65.70;100824.83;121837;1152;22544;-71
2021/03/23 07:35:00;;;;;;;17.80;12.63;;;;;;;4.85;65.87;100828.30;122285;1152;22549;-72
2021/03/23 07:37:54;;;;;;;21.88;13.78;;;;;;;5.00;65.78;100828.88;122439;1152;22551;-73
2021/03/23 07:40:31;;;;;;;27.08;14.78;;;;;;;5.14;65.94;100833.88;122141;1153;24455;-73
2021/03/23 07:43:44;;;;;;;21.58;14.43;;;;;;;5.27;65.66;100829.34;122328;1151;22585;-73
2021/03/23 07:46:37;;;;;;;26.83;17.85;;;;;;;5.37;65.45;100824.20;122280;1155;23327;-76
2021/03/23 07:49:50;;;;;;;33.38;25.60;;;;;;;5.46;65.30;100836.55;122168;1152;22608;-76
2021/03/23 07:52:31;;;;;;;27.85;20.25;;;;;;;5.49;64.89;100828.44;121639;1158;22557;-77
2021/03/23 07:55:01;;;;;;;28.08;18.80;;;;;;;5.52;64.97;100833.44;121657;1156;22655;-76
2021/03/23 07:57:35;;;;;;;27.93;19.03;;;;;;;5.55;64.91;100837.61;121671;1156;24844;-76
2021/03/23 08:00:22;;;;;;;34.50;21.13;;;;;;;5.55;64.89;100840.23;121684;1156;22742;-76
2021/03/23 08:03:10;;;;;;;37.43;26.30;;;;;;;5.57;65.10;100836.53;121669;1155;22552;-76
2021/03/23 08:06:27;;;;;;;40.80;27.83;;;;;;;5.56;65.08;100840.09;121592;1158;24702;-76
2021/03/23 08:09:17;;;;;;;40.80;26.43;;;;;;;5.59;65.36;100842.47;121599;1155;22544;-77
2021/03/23 08:11:54;;;;;;;59.10;38.38;;;;;;;5.60;65.39;100838.08;121718;1158;22616;-76
2021/03/23 08:14:50;;;;;;;46.05;31.83;;;;;;;5.62;65.47;100844.84;121675;1156;22553;-76
2021/03/23 08:17:55;;;;;;;45.90;30.73;;;;;;;5.69;65.86;100850.42;121683;1158;22568;-75
2021/03/23 08:21:06;;;;;;;32.50;23.25;;;;;;;5.76;65.83;100848.97;121685;1155;22551;-76
2021/03/23 08:24:20;;;;;;;31.20;21.50;;;;;;;5.78;65.84;100846.23;121689;1158;22697;-76
2021/03/23 08:27:16;;;;;;;33.00;22.88;;;;;;;5.83;65.99;100851.92;121979;1155;25207;-76
2021/03/23 08:30:07;;;;;;;36.80;25.55;;;;;;;5.89;66.20;100854.05;122273;1153;22555;-76
2021/03/23 08:32:53;;;;;;;31.65;21.95;;;;;;;5.92;65.75;100856.42;122212;1152;24415;-76
2021/03/23 08:35:49;;;;;;;30.75;23.98;;;;;;;5.93;65.58;100858.14;122178;1152;22546;-76
2021/03/23 08:38:34;;;;;;;37.25;24.60;;;;;;;5.94;65.80;100865.05;122522;1152;22846;-76
2021/03/23 08:41:41;;;;;;;35.75;26.38;;;;;;;5.99;65.91;100867.28;122585;1152;22605;-75
2021/03/23 08:44:33;;;;;;;41.83;25.15;;;;;;;6.06;66.03;100873.69;122052;1155;22621;-77
2021/03/23 08:47:33;;;;;;;33.05;25.65;;;;;;;6.13;66.13;100870.45;121867;1155;22534;-75
2021/03/23 08:50:17;;;;;;;28.70;23.53;;;;;;;6.23;66.23;100874.91;121854;1155;24784;-76
2021/03/23 08:52:50;;;;;;;37.20;24.10;;;;;;;6.31;65.97;100872.50;121789;1155;22554;-76
2021/03/23 08:55:24;;;;;;;37.03;25.65;;;;;;;6.36;65.93;100873.80;121724;1156;22550;-76
2021/03/23 08:58:09;;;;;;;31.10;25.33;;;;;;;6.41;66.05;100864.70;122061;1155;22556;-78
2021/03/23 09:00:54;;;;;;;35.93;26.23;;;;;;;6.45;65.86;100880.05;121882;1155;22619;-77
2021/03/23 09:03:39;;;;;;;29.00;24.80;;;;;;;6.47;65.84;100874.70;122133;1152;22555;-76
2021/03/23 09:06:12;;;;;;;32.45;24.50;;;;;;;6.45;65.73;100868.73;122340;1152;22547;-75
2021/03/23 09:08:54;;;;;;;37.08;25.85;;;;;;;6.51;66.04;100863.80;122398;1152;22543;-76
2021/03/23 09:11:37;;;;;;;39.18;27.33;;;;;;;6.60;66.25;100876.16;122208;1152;22870;-77
2021/03/23 09:14:08;;;;;;;41.35;30.45;;;;;;;6.69;66.24;100878.95;122507;1152;22545;-73
2021/03/23 09:16:59;;;;;;;49.27;33.53;;;;;;;6.76;65.88;100882.72;122447;1152;22526;-73
2021/03/23 09:19:49;;;;;;;49.03;33.50;;;;;;;6.74;65.87;100874.16;122276;1152;22571;-74
2021/03/23 09:22:17;;;;;;;28.48;23.08;;;;;;;6.71;65.71;100885.75;122216;1155;22540;-73
2021/03/23 09:24:46;;;;;;;26.08;20.35;;;;;;;6.67;65.90;100884.34;122125;1155;23396;-75
2021/03/23 09:27:26;;;;;;;70.68;47.55;;;;;;;6.67;65.98;100879.09;122132;1155;22536;-74
2021/03/23 09:29:54;;;;;;;37.55;27.90;;;;;;;6.70;66.10;100889.34;122238;1155;22538;-74
2021/03/23 09:32:29;;;;;;;35.88;26.25;;;;;;;6.70;66.02;100878.02;121918;1155;22547;-74
2021/03/23 09:37:59;;;;;;;27.73;20.05;;;;;;;6.66;66.37;100877.41;122120;1157;22540;-74
2021/03/23 09:40:39;;;;;;;27.05;19.05;;;;;;;6.77;66.47;100890.48;121870;1155;22557;-72
2021/03/23 09:43:24;;;;;;;24.73;18.85;;;;;;;6.94;66.71;100886.42;122051;1152;23552;-71
2021/03/23 09:46:24;;;;;;;20.85;18.08;;;;;;;7.24;66.94;100882.95;122315;1152;22543;-73
2021/03/23 09:49:23;;;;;;;24.03;17.03;;;;;;;7.46;66.32;100892.44;122551;1152;23192;-73
2021/03/23 09:52:08;;;;;;;21.35;17.23;;;;;;;7.59;65.62;100886.91;122288;1152;22537;-74
2021/03/23 09:54:51;;;;;;;23.55;16.60;;;;;;;7.68;65.09;100895.79;122113;1155;22556;-72
2021/03/23 09:57:26;;;;;;;26.83;20.60;;;;;;;7.65;64.57;100898.69;122074;1155;22547;-72
2021/03/23 10:00:34;;;;;;;30.27;21.83;;;;;;;7.62;64.70;100893.70;121709;1154;24792;-72
2021/03/23 10:03:20;;;;;;;23.02;18.23;;;;;;;7.69;64.78;100892.19;121575;1158;22656;-73
2021/03/23 10:06:05;;;;;;;23.80;18.95;;;;;;;7.80;64.39;100889.45;121665;1158;22566;-73
2021/03/23 10:08:35;;;;;;;21.28;15.98;;;;;;;7.93;64.34;100900.55;121478;1158;22564;-72
2021/03/23 10:11:18;;;;;;;22.50;18.08;;;;;;;8.00;64.01;100892.94;121473;1158;22879;-72
2021/03/23 10:14:01;;;;;;;22.58;16.28;;;;;;;8.07;63.86;100893.21;121619;1158;22573;-73
2021/03/23 10:16:34;;;;;;;21.53;15.87;;;;;;;8.58;64.82;100894.72;121511;1158;23521;-73
2021/03/23 10:19:22;;;;;;;22.57;15.53;;;;;;;8.86;63.20;100893.83;121641;1156;22658;-74
2021/03/23 10:22:23;;;;;;;32.78;23.40;;;;;;;8.97;62.19;100882.28;122103;1152;22547;-72
2021/03/23 10:24:53;;;;;;;24.95;19.23;;;;;;;9.12;62.25;100891.36;122136;1153;22663;-73
2021/03/23 10:27:42;;;;;;;27.30;19.35;;;;;;;9.64;62.87;100891.66;122260;1152;22548;-73
2021/03/23 10:30:33;;;;;;;26.08;19.75;;;;;;;10.18;61.10;100894.32;122204;1151;23269;-73
2021/03/23 10:33:22;;;;;;;18.75;14.03;;;;;;;10.79;60.52;100893.47;122188;1152;22864;-74
2021/03/23 10:36:05;;;;;;;27.60;15.88;;;;;;;11.08;58.09;100893.14;122155;1152;22541;-74
2021/03/23 10:38:47;;;;;;;21.98;15.15;;;;;;;11.38;57.88;100895.43;122270;1154;23395;-74
2021/03/23 10:41:17;;;;;;;25.23;13.73;;;;;;;11.73;56.51;100895.22;121900;1155;22655;-73
2021/03/23 10:44:11;;;;;;;22.18;14.13;;;;;;;11.92;55.91;100890.63;122032;1155;23431;-75
2021/03/23 10:46:44;;;;;;;23.83;14.18;;;;;;;12.41;55.08;100893.31;121639;1155;24705;-74
2021/03/23 10:49:31;;;;;;;16.88;11.28;;;;;;;12.35;53.11;100888.68;121735;1155;22563;-73
2021/03/23 10:52:17;;;;;;;25.80;14.50;;;;;;;11.91;52.38;100894.28;122070;1155;22583;-73
2021/03/23 10:54:46;;;;;;;24.80;14.70;;;;;;;11.32;52.12;100891.59;122157;1155;24773;-74
2021/03/23 10:57:32;;;;;;;22.95;15.08;;;;;;;10.88;52.72;100891.72;121885;1155;22682;-73
2021/03/23 11:00:31;;;;;;;20.45;11.85;;;;;;;10.43;53.27;100892.75;122175;1153;24712;-73
2021/03/23 11:03:23;;;;;;;23.08;15.73;;;;;;;10.08;53.66;100896.21;122365;1152;22538;-74
2021/03/23 11:26:29;;;;;;;18.90;13.03;;;;;;;8.64;57.84;100905.52;122369;1152;22544;-77
2021/03/23 11:29:04;;;;;;;19.48;11.93;;;;;;;8.72;57.92;100905.63;122330;1152;24689;-76
2021/03/23 11:31:35;;;;;;;14.73;10.03;;;;;;;8.85;58.03;100907.95;122291;1154;23493;-73
2021/03/23 11:34:04;;;;;;;20.40;11.98;;;;;;;8.95;57.72;100905.30;121991;1153;22528;-73
2021/03/23 11:36:33;;;;;;;16.03;10.63;;;;;;;8.94;57.33;100899.20;122359;1153;22556;-73
2021/03/23 11:39:05;;;;;;;14.18;9.60;;;;;;;8.92;57.28;100903.77;122285;1154;22533;-73
2021/03/23 11:41:41;;;;;;;12.78;10.28;;;;;;;8.82;56.97;100908.23;122377;1152;22550;-74
2021/03/23 11:44:19;;;;;;;13.65;11.33;;;;;;;8.77;57.19;100905.22;122196;1155;23326;-73
2021/03/23 11:46:57;;;;;;;21.88;12.35;;;;;;;8.77;57.53;100907.03;122121;1152;25006;-75
2021/03/23 11:49:56;;;;;;;18.68;11.55;;;;;;;8.81;57.42;100906.59;122152;1155;22538;-74
2021/03/23 11:52:25;;;;;;;15.03;12.30;;;;;;;8.83;57.73;100902.02;122165;1152;22553;-74
2021/03/23 11:54:53;;;;;;;16.83;11.63;;;;;;;8.89;57.53;100904.05;122057;1155;23370;-74
2021/03/23 11:57:22;;;;;;;17.23;10.90;;;;;;;8.94;57.43;100899.20;122166;1152;25029;-74
2021/03/23 11:59:51;;;;;;;11.53;10.33;;;;;;;8.95;57.47;100902.66;122168;1155;22545;-74
2021/03/23 12:02:19;;;;;;;14.55;12.63;;;;;;;9.02;57.52;100898.47;122157;1153;22547;-74
2021/03/23 12:04:48;;;;;;;16.23;13.63;;;;;;;8.98;57.16;100904.19;122301;1155;22633;-74
2021/03/23 12:07:56;;;;;;;27.68;18.80;;;;;;;8.88;57.19;100898.95;122200;1152;22547;-75
2021/03/23 12:10:35;;;;;;;20.25;15.08;;;;;;;8.77;57.57;100899.95;122206;1152;24690;-74
2021/03/23 12:13:34;;;;;;;17.43;13.88;;;;;;;8.80;57.76;100904.11;122132;1153;22537;-74
2021/03/23 12:16:11;;;;;;;20.15;13.43;;;;;;;8.84;58.18;100902.84;122150;1155;22879;-74
2021/03/23 12:18:40;;;;;;;15.60;12.50;;;;;;;8.93;58.39;100897.55;122082;1155;24689;-74
2021/03/23 12:21:09;;;;;;;18.43;12.13;;;;;;;9.03;58.53;100901.94;122059;1153;22532;-74